Aviation Digital Data Service (ADDS)

Output produced by METARs form (1134 UTC 28 September 2021)
found at http://www.aviationweather.gov/metar/data/
 
KMKT 281120Z 2812/2912 15007KT P6SM SKC
       
KRST 281120Z 2812/2912 15009KT P6SM SKC
       
KMSP 281120Z 2812/2918 14007KT P6SM SKC